Time;durP1;ratioP1;P1;durP2;ratioP2;P2;SDS_P1;SDS_P2;PMS_P1;PMS_P2;Temp;Humidity;BMP_temperature;BMP_pressure;BME280_temperature;BME280_humidity;BME280_pressure;Samples;Min_cycle;Max_cycle;Signal;HPM_P1;HPM_P2
2021/05/07 00:01:38;;;;;;;10.10;6.55;;;5.50;99.10;;;;;;4948231;29;20019;-28
2021/05/07 00:04:04;;;;;;;9.73;6.40;;;5.50;99.10;;;;;;4948238;29;20513;-28
2021/05/07 00:06:29;;;;;;;8.35;7.25;;;5.50;99.20;;;;;;4947526;29;20030;-27
2021/05/07 00:08:55;;;;;;;11.43;8.07;;;5.50;99.20;;;;;;4947779;29;20597;-28
2021/05/07 00:11:21;;;;;;;7.93;7.10;;;5.50;99.30;;;;;;4949486;28;20024;-26
2021/05/07 00:13:48;;;;;;;10.88;8.20;;;5.50;99.30;;;;;;4948426;29;20393;-27
2021/05/07 00:16:14;;;;;;;12.35;8.30;;;5.50;99.40;;;;;;4949282;29;20106;-27
2021/05/07 00:18:40;;;;;;;11.02;8.60;;;5.40;99.50;;;;;;4948734;28;20034;-27
2021/05/07 00:21:07;;;;;;;11.40;7.65;;;5.40;99.50;;;;;;4948091;28;20031;-27
2021/05/07 00:23:37;;;;;;;9.07;6.60;;;5.40;99.40;;;;;;4949205;29;20054;-27
2021/05/07 00:26:04;;;;;;;9.13;6.68;;;5.40;99.40;;;;;;4949498;28;20463;-27
2021/05/07 00:28:30;;;;;;;12.25;7.10;;;5.40;99.40;;;;;;4949386;29;20125;-27
2021/05/07 00:30:55;;;;;;;10.85;7.32;;;5.30;99.40;;;;;;4948645;29;20186;-27
2021/05/07 00:33:21;;;;;;;8.07;6.85;;;5.30;99.40;;;;;;4948755;28;20639;-27
2021/05/07 00:35:48;;;;;;;9.27;7.25;;;5.20;99.40;;;;;;4948985;28;20027;-27
2021/05/07 00:38:17;;;;;;;8.43;7.18;;;5.20;99.50;;;;;;4948690;28;20062;-27
2021/05/07 00:40:43;;;;;;;8.15;6.68;;;5.10;99.50;;;;;;4945697;29;20459;-27
2021/05/07 00:43:09;;;;;;;9.98;6.88;;;5.10;99.50;;;;;;4948617;29;20041;-28
2021/05/07 00:45:35;;;;;;;10.02;6.85;;;5.10;99.60;;;;;;4949021;29;20023;-27
2021/05/07 00:48:11;;;;;;;8.25;7.13;;;5.10;99.60;;;;;;4948236;29;20055;-28
2021/05/07 00:50:45;;;;;;;8.35;7.00;;;5.00;99.70;;;;;;4948784;29;20055;-28
2021/05/07 00:53:11;;;;;;;9.90;7.53;;;5.00;99.70;;;;;;4948594;29;20105;-27
2021/05/07 00:55:39;;;;;;;9.85;7.47;;;5.00;99.70;;;;;;4947839;29;20063;-28
2021/05/07 00:58:05;;;;;;;8.10;7.30;;;5.00;99.80;;;;;;4949519;29;20050;-28
2021/05/07 01:00:31;;;;;;;8.73;7.72;;;5.00;99.80;;;;;;4948565;29;20182;-31
2021/05/07 01:02:58;;;;;;;10.52;7.57;;;5.00;99.90;;;;;;4947751;28;20057;-27
2021/05/07 01:05:24;;;;;;;10.52;7.78;;;4.90;99.90;;;;;;4948508;29;20525;-27
2021/05/07 01:07:53;;;;;;;9.43;7.63;;;4.90;99.90;;;;;;4948713;29;20110;-28
2021/05/07 01:10:19;;;;;;;10.68;8.13;;;4.90;99.90;;;;;;4948076;28;20034;-27
2021/05/07 01:12:47;;;;;;;9.82;7.85;;;4.80;99.90;;;;;;4948464;29;20051;-28
2021/05/07 01:15:15;;;;;;;8.77;7.72;;;4.90;99.90;;;;;;4948388;28;20125;-28
2021/05/07 01:17:44;;;;;;;9.55;8.02;;;4.90;99.90;;;;;;4948526;29;20042;-27
2021/05/07 01:20:13;;;;;;;8.82;7.10;;;4.80;99.90;;;;;;4948486;28;20166;-27
2021/05/07 01:22:41;;;;;;;10.00;7.70;;;4.80;99.90;;;;;;4948158;28;20034;-27
2021/05/07 01:25:08;;;;;;;11.02;7.38;;;4.70;99.90;;;;;;4948170;29;20086;-28
2021/05/07 01:27:37;;;;;;;9.70;7.53;;;4.70;99.90;;;;;;4948074;29;20387;-27
2021/05/07 01:30:14;;;;;;;9.73;7.90;;;4.70;99.90;;;;;;4947470;28;20031;-27
2021/05/07 01:32:43;;;;;;;10.23;8.23;;;4.70;99.90;;;;;;4948431;28;20023;-27
2021/05/07 01:35:13;;;;;;;9.45;7.43;;;4.70;99.90;;;;;;4947829;28;20526;-27
2021/05/07 01:37:40;;;;;;;8.13;7.32;;;4.60;99.90;;;;;;4944429;29;20035;-27
2021/05/07 01:40:26;;;;;;;8.80;7.47;;;4.60;99.90;;;;;;4948729;29;20035;-27
2021/05/07 01:42:53;;;;;;;9.25;8.02;;;4.60;99.90;;;;;;4945089;29;20019;-28
2021/05/07 01:45:22;;;;;;;8.70;7.78;;;4.60;99.90;;;;;;4947225;29;20190;-27
2021/05/07 01:47:48;;;;;;;8.90;7.75;;;4.50;99.90;;;;;;4947215;29;20042;-27
2021/05/07 01:50:17;;;;;;;9.27;7.93;;;4.50;99.90;;;;;;4948576;28;20027;-28
2021/05/07 01:52:42;;;;;;;8.23;7.32;;;4.50;99.90;;;;;;4947534;28;20023;-27
2021/05/07 01:55:10;;;;;;;9.20;7.53;;;4.50;99.90;;;;;;4948023;29;20027;-27
2021/05/07 01:57:37;;;;;;;8.43;6.78;;;4.40;99.90;;;;;;4946846;29;20404;-27
2021/05/07 02:00:09;;;;;;;8.77;6.93;;;4.40;99.90;;;;;;4928446;29;20526;-27
2021/05/07 02:02:35;;;;;;;9.38;7.50;;;4.30;99.90;;;;;;4943027;29;20024;-27
2021/05/07 02:05:00;;;;;;;9.07;7.93;;;4.30;99.90;;;;;;4947332;28;20043;-27
2021/05/07 02:07:27;;;;;;;8.68;7.78;;;4.30;99.90;;;;;;4947702;29;20015;-26
2021/05/07 02:09:53;;;;;;;8.68;7.28;;;4.30;99.90;;;;;;4946731;28;20375;-26
2021/05/07 02:12:18;;;;;;;10.07;7.40;;;4.30;99.90;;;;;;4947865;29;20027;-27
2021/05/07 02:14:44;;;;;;;10.32;7.70;;;4.30;99.90;;;;;;4947564;28;20190;-27
2021/05/07 02:17:09;;;;;;;10.00;7.80;;;4.30;99.90;;;;;;4947336;29;20011;-27
2021/05/07 02:19:35;;;;;;;7.60;6.75;;;4.30;99.90;;;;;;4947944;28;20050;-27
2021/05/07 02:22:00;;;;;;;8.60;7.57;;;4.20;99.90;;;;;;4947050;29;20459;-27
2021/05/07 02:24:26;;;;;;;9.68;7.75;;;4.20;99.90;;;;;;4948385;29;20038;-28
2021/05/07 02:26:52;;;;;;;9.07;7.93;;;4.20;99.90;;;;;;4947108;29;20052;-27
2021/05/07 02:29:17;;;;;;;8.77;7.40;;;4.20;99.90;;;;;;4937186;29;20019;-27
2021/05/07 02:31:44;;;;;;;8.18;7.18;;;4.20;99.90;;;;;;4947912;28;20102;-28
2021/05/07 02:34:11;;;;;;;9.20;7.57;;;4.20;99.90;;;;;;4947289;28;20178;-27
2021/05/07 02:36:40;;;;;;;11.05;7.15;;;4.20;99.90;;;;;;4951347;28;20032;-27
2021/05/07 02:39:07;;;;;;;10.15;8.27;;;4.30;99.90;;;;;;4950935;28;20460;-27
2021/05/07 02:41:35;;;;;;;9.95;7.85;;;4.30;99.90;;;;;;4951425;28;20024;-28
2021/05/07 02:44:02;;;;;;;9.93;8.50;;;4.30;99.90;;;;;;4950758;28;20062;-28
2021/05/07 02:46:28;;;;;;;8.98;7.88;;;4.40;99.90;;;;;;4951082;29;20035;-28
2021/05/07 02:48:53;;;;;;;9.38;8.10;;;4.40;99.90;;;;;;4950674;28;20456;-26
2021/05/07 02:51:19;;;;;;;10.43;8.30;;;4.50;99.90;;;;;;4950799;28;20028;-27
2021/05/07 02:53:44;;;;;;;8.88;7.55;;;4.50;99.90;;;;;;4950131;29;20027;-27
2021/05/07 02:56:11;;;;;;;7.93;6.95;;;4.60;99.90;;;;;;4951022;28;20027;-26
2021/05/07 02:58:37;;;;;;;9.18;7.75;;;4.60;99.90;;;;;;4949985;29;20062;-28
2021/05/07 03:01:02;;;;;;;8.77;7.28;;;4.60;99.90;;;;;;4950017;28;20471;-27
2021/05/07 03:03:28;;;;;;;9.40;8.05;;;4.70;99.90;;;;;;4950841;29;20039;-27
2021/05/07 03:05:53;;;;;;;8.98;7.88;;;4.70;99.90;;;;;;4950707;28;20031;-27
2021/05/07 03:08:23;;;;;;;8.80;7.45;;;4.80;99.90;;;;;;4950042;28;20039;-28
2021/05/07 03:10:49;;;;;;;9.35;7.55;;;4.80;99.90;;;;;;4950263;28;20470;-28
2021/05/07 03:13:14;;;;;;;9.60;8.20;;;4.80;99.90;;;;;;4950577;28;20125;-27
2021/05/07 03:15:40;;;;;;;8.48;7.32;;;4.90;99.90;;;;;;4950173;28;20533;-29
2021/05/07 03:18:06;;;;;;;9.30;8.07;;;4.90;99.90;;;;;;4950707;28;20047;-27
2021/05/07 03:20:31;;;;;;;8.95;7.68;;;4.90;99.90;;;;;;4949919;28;20364;-27
2021/05/07 03:22:57;;;;;;;8.57;7.68;;;4.90;99.90;;;;;;4949767;28;20035;-27
2021/05/07 03:25:22;;;;;;;9.85;7.93;;;4.90;99.90;;;;;;4950854;28;20027;-27
2021/05/07 03:27:49;;;;;;;10.13;7.55;;;5.00;99.90;;;;;;4949833;29;20020;-27
2021/05/07 03:30:16;;;;;;;8.75;7.85;;;4.90;99.90;;;;;;4950149;29;20026;-27
2021/05/07 03:32:41;;;;;;;11.23;8.23;;;5.00;99.90;;;;;;4950444;28;20043;-28
2021/05/07 03:35:10;;;;;;;9.30;7.68;;;4.90;99.90;;;;;;4949582;29;20035;-27
2021/05/07 03:37:36;;;;;;;12.55;8.65;;;4.90;99.90;;;;;;4949920;28;20394;-26
2021/05/07 03:40:01;;;;;;;9.40;7.72;;;4.90;99.90;;;;;;4950108;29;20031;-27
2021/05/07 03:42:27;;;;;;;10.10;9.10;;;5.00;99.90;;;;;;4949971;28;20674;-27
2021/05/07 03:44:53;;;;;;;10.25;8.93;;;5.00;99.90;;;;;;4949033;28;20043;-28
2021/05/07 03:47:18;;;;;;;9.13;8.23;;;5.00;99.90;;;;;;4950112;29;20420;-27
2021/05/07 03:49:44;;;;;;;10.88;8.73;;;5.10;99.90;;;;;;4950163;29;20217;-27
2021/05/07 03:52:09;;;;;;;9.75;8.27;;;5.10;99.90;;;;;;4950112;28;20030;-27
2021/05/07 03:54:35;;;;;;;10.55;8.43;;;5.10;99.90;;;;;;4951229;28;20047;-28
2021/05/07 03:57:00;;;;;;;11.02;9.02;;;5.20;99.90;;;;;;4948832;28;20050;-28
2021/05/07 03:59:26;;;;;;;9.40;8.38;;;5.20;99.90;;;;;;4950641;28;20075;-28
2021/05/07 04:01:54;;;;;;;14.13;10.93;;;5.20;99.90;;;;;;4949883;28;20468;-27
2021/05/07 04:04:20;;;;;;;14.98;11.68;;;5.30;99.90;;;;;;4949918;28;20031;-27
2021/05/07 04:06:45;;;;;;;17.63;13.55;;;5.30;99.90;;;;;;4949770;28;20053;-27
2021/05/07 04:09:18;;;;;;;16.88;12.48;;;5.30;99.90;;;;;;4950057;28;20469;-27
2021/05/07 04:11:57;;;;;;;13.32;11.60;;;5.20;99.90;;;;;;4949061;28;20027;-26
2021/05/07 04:14:23;;;;;;;12.77;11.10;;;5.20;99.90;;;;;;4950352;28;20023;-29
2021/05/07 04:16:49;;;;;;;11.25;9.18;;;5.10;99.90;;;;;;4949767;28;20082;-27
2021/05/07 04:19:15;;;;;;;9.70;7.53;;;4.90;99.90;;;;;;4949336;29;20047;-27
2021/05/07 04:21:41;;;;;;;7.70;6.60;;;4.80;99.90;;;;;;4949703;28;20094;-27
2021/05/07 04:24:07;;;;;;;8.23;6.40;;;4.60;99.90;;;;;;4949718;28;20467;-26
2021/05/07 04:26:33;;;;;;;7.05;5.07;;;4.50;99.90;;;;;;4949062;29;20023;-28
2021/05/07 04:28:58;;;;;;;6.35;4.18;;;4.40;99.90;;;;;;4949246;28;20030;-27
2021/05/07 04:31:24;;;;;;;6.10;4.90;;;4.30;99.90;;;;;;4949396;29;20023;-28
2021/05/07 04:33:51;;;;;;;6.63;5.32;;;4.20;99.90;;;;;;4949471;29;20023;-29
2021/05/07 04:36:16;;;;;;;6.10;5.50;;;4.10;99.90;;;;;;4949134;29;20027;-26
2021/05/07 04:38:42;;;;;;;6.45;4.95;;;4.00;99.90;;;;;;4949229;29;20031;-28
2021/05/07 04:41:07;;;;;;;6.38;4.88;;;4.00;99.90;;;;;;4949209;29;20034;-28
2021/05/07 04:43:33;;;;;;;7.15;5.18;;;4.00;99.90;;;;;;4948893;29;20491;-28
2021/05/07 04:45:58;;;;;;;5.35;4.28;;;4.00;99.90;;;;;;4948762;29;20027;-28
2021/05/07 04:48:24;;;;;;;4.70;3.80;;;4.00;99.90;;;;;;4948652;29;20156;-28
2021/05/07 04:50:50;;;;;;;4.07;2.90;;;4.00;99.90;;;;;;4948913;29;20423;-28
2021/05/07 04:53:15;;;;;;;5.40;3.30;;;4.10;99.90;;;;;;4948261;29;20078;-28
2021/05/07 04:55:41;;;;;;;4.38;3.30;;;4.20;99.90;;;;;;4949092;28;20046;-28
2021/05/07 04:58:06;;;;;;;4.95;3.17;;;4.20;99.90;;;;;;4948021;28;20043;-28
2021/05/07 05:00:32;;;;;;;3.22;2.83;;;4.30;99.90;;;;;;4948542;28;20047;-28
2021/05/07 05:02:58;;;;;;;3.30;3.00;;;4.30;99.90;;;;;;4948289;29;20023;-28
2021/05/07 05:05:23;;;;;;;4.93;3.15;;;4.40;99.90;;;;;;4949104;28;20031;-28
2021/05/07 05:07:55;;;;;;;5.00;3.65;;;4.40;99.90;;;;;;4948306;29;20179;-29
2021/05/07 05:10:20;;;;;;;4.55;3.17;;;4.40;99.90;;;;;;4948924;28;20463;-28
2021/05/07 05:12:46;;;;;;;4.00;3.60;;;4.40;99.90;;;;;;4948527;28;20054;-28
2021/05/07 05:15:15;;;;;;;3.67;3.28;;;4.40;99.90;;;;;;4947983;29;20439;-28
2021/05/07 05:17:41;;;;;;;4.47;3.35;;;4.40;99.90;;;;;;4948587;29;20054;-28
2021/05/07 05:20:08;;;;;;;3.25;2.95;;;4.40;99.90;;;;;;4948494;29;20130;-28
2021/05/07 05:22:34;;;;;;;5.03;4.18;;;4.40;99.90;;;;;;4948614;29;20023;-28
2021/05/07 05:25:04;;;;;;;3.33;2.90;;;4.50;99.90;;;;;;4947746;29;20555;-28
2021/05/07 05:27:33;;;;;;;5.63;4.15;;;4.50;99.90;;;;;;4948850;29;20019;-28
2021/05/07 05:29:59;;;;;;;5.93;4.53;;;4.50;99.90;;;;;;4947666;28;20145;-28
2021/05/07 05:32:25;;;;;;;5.63;4.10;;;4.40;99.90;;;;;;4949058;28;20434;-28
2021/05/07 05:34:51;;;;;;;6.40;4.47;;;4.30;99.90;;;;;;4948429;28;20550;-28
2021/05/07 05:37:17;;;;;;;5.43;4.40;;;4.20;99.90;;;;;;4948178;29;20046;-28
2021/05/07 05:39:42;;;;;;;6.45;3.80;;;4.10;99.90;;;;;;4948271;28;20042;-28
2021/05/07 05:42:08;;;;;;;4.40;3.10;;;4.10;99.90;;;;;;4948590;29;20034;-30
2021/05/07 05:44:33;;;;;;;4.03;3.60;;;4.20;99.90;;;;;;4947975;28;20051;-28
2021/05/07 05:46:59;;;;;;;6.93;4.00;;;4.10;99.90;;;;;;4948662;29;20045;-27
2021/05/07 05:49:24;;;;;;;4.47;3.67;;;4.10;99.90;;;;;;4948582;28;20034;-34
2021/05/07 05:51:50;;;;;;;4.03;3.10;;;4.00;99.90;;;;;;4948424;29;20352;-36
2021/05/07 05:54:18;;;;;;;3.95;3.03;;;4.00;99.90;;;;;;4948508;28;20041;-28
2021/05/07 05:56:46;;;;;;;4.75;3.25;;;4.00;99.90;;;;;;4947427;29;20023;-28
2021/05/07 05:59:11;;;;;;;4.85;3.05;;;4.00;99.90;;;;;;4948405;28;20134;-28
2021/05/07 06:01:40;;;;;;;3.50;3.20;;;4.00;99.90;;;;;;4944815;29;20107;-28
2021/05/07 06:04:05;;;;;;;4.22;3.30;;;4.10;99.90;;;;;;4946818;29;20023;-28
2021/05/07 06:06:31;;;;;;;4.72;3.78;;;4.10;99.90;;;;;;4947884;28;20378;-28
2021/05/07 06:08:56;;;;;;;3.55;3.20;;;4.10;99.90;;;;;;4948938;28;20524;-28
2021/05/07 06:11:22;;;;;;;3.30;3.00;;;4.20;99.90;;;;;;4950839;29;20797;-28
2021/05/07 06:13:49;;;;;;;3.22;2.92;;;4.20;99.90;;;;;;4951911;29;20024;-28
2021/05/07 06:16:14;;;;;;;3.40;3.10;;;4.20;99.90;;;;;;4950782;29;20387;-28
2021/05/07 06:18:40;;;;;;;3.47;3.17;;;4.30;99.90;;;;;;4951242;28;20043;-28
2021/05/07 06:21:06;;;;;;;3.90;3.50;;;4.40;99.90;;;;;;4950241;29;20149;-27
2021/05/07 06:23:31;;;;;;;5.07;3.15;;;4.50;99.90;;;;;;4951206;28;20160;-27
2021/05/07 06:25:57;;;;;;;3.13;2.80;;;4.60;99.90;;;;;;4949099;29;20031;-27
2021/05/07 06:28:23;;;;;;;3.58;3.08;;;4.60;99.90;;;;;;4952097;28;20020;-28
2021/05/07 06:30:48;;;;;;;4.28;3.47;;;4.60;99.90;;;;;;4952096;28;20033;-28
2021/05/07 06:33:14;;;;;;;3.35;3.08;;;4.60;99.90;;;;;;4950960;29;20039;-28
2021/05/07 06:35:39;;;;;;;4.28;3.08;;;4.70;99.90;;;;;;4951171;29;20031;-29
2021/05/07 06:38:09;;;;;;;3.90;2.90;;;4.70;99.90;;;;;;4951449;29;20371;-28
2021/05/07 06:40:35;;;;;;;3.35;2.92;;;4.70;99.90;;;;;;4950894;28;20479;-27
2021/05/07 06:43:01;;;;;;;4.47;3.05;;;4.80;99.90;;;;;;4951771;29;20390;-29
2021/05/07 06:45:27;;;;;;;2.90;2.60;;;4.80;99.90;;;;;;4952134;29;20043;-28
2021/05/07 06:47:52;;;;;;;2.78;2.53;;;4.80;99.90;;;;;;4950766;28;20020;-28
2021/05/07 06:50:20;;;;;;;4.07;2.47;;;4.90;99.90;;;;;;4950003;29;20027;-29
2021/05/07 06:52:46;;;;;;;3.75;3.00;;;4.90;99.90;;;;;;4951908;28;20099;-28
2021/05/07 06:55:12;;;;;;;3.10;2.78;;;5.00;99.90;;;;;;4951668;29;20035;-28
2021/05/07 06:57:38;;;;;;;2.53;2.33;;;5.10;99.90;;;;;;4951539;29;20030;-29
2021/05/07 07:00:06;;;;;;;4.45;2.80;;;5.20;99.90;;;;;;4951498;28;20118;-28
2021/05/07 07:02:31;;;;;;;2.50;2.30;;;5.30;99.90;;;;;;4950613;28;20047;-29
2021/05/07 07:04:57;;;;;;;3.97;2.60;;;5.40;99.90;;;;;;4951643;29;20508;-28
2021/05/07 07:07:25;;;;;;;2.85;2.58;;;5.40;99.90;;;;;;4942834;29;20486;-28
2021/05/07 07:09:51;;;;;;;3.10;2.80;;;5.50;99.90;;;;;;4951373;28;20019;-27
2021/05/07 07:12:16;;;;;;;2.63;2.42;;;5.50;99.90;;;;;;4952023;29;20572;-28
2021/05/07 07:14:42;;;;;;;3.10;2.80;;;5.60;99.90;;;;;;4950554;28;20043;-27
2021/05/07 07:17:07;;;;;;;4.40;3.25;;;5.60;99.90;;;;;;4950613;29;20119;-28
2021/05/07 07:19:34;;;;;;;4.15;2.97;;;5.60;99.90;;;;;;4951785;28;20042;-28
2021/05/07 07:22:03;;;;;;;3.22;2.95;;;5.70;99.90;;;;;;4949958;28;20039;-28
2021/05/07 07:24:29;;;;;;;5.40;3.70;;;5.70;99.90;;;;;;4951057;28;20123;-28
2021/05/07 07:26:55;;;;;;;4.13;3.30;;;5.80;99.90;;;;;;4950652;29;20032;-28
2021/05/07 07:29:21;;;;;;;3.90;3.30;;;5.70;99.90;;;;;;4950311;28;20023;-30
2021/05/07 07:31:47;;;;;;;5.10;3.78;;;5.70;99.90;;;;;;4950416;29;20063;-28
2021/05/07 07:34:12;;;;;;;4.70;3.75;;;5.70;99.90;;;;;;4951069;29;20027;-28
2021/05/07 07:36:38;;;;;;;3.95;3.42;;;5.70;99.90;;;;;;4947469;29;20422;-28
2021/05/07 07:39:05;;;;;;;6.97;4.30;;;5.70;99.90;;;;;;4949755;29;20066;-28
2021/05/07 07:41:30;;;;;;;4.68;3.63;;;5.70;99.90;;;;;;4950672;28;20059;-28
2021/05/07 07:43:56;;;;;;;3.58;3.28;;;5.80;99.90;;;;;;4946548;29;20082;-28
2021/05/07 07:46:24;;;;;;;7.50;3.95;;;5.90;99.90;;;;;;4950455;29;20023;-28
2021/05/07 07:48:49;;;;;;;6.30;4.45;;;6.00;99.90;;;;;;4950136;29;20090;-29
2021/05/07 07:51:15;;;;;;;6.13;4.53;;;6.10;99.90;;;;;;4949484;29;20027;-28
2021/05/07 07:53:41;;;;;;;6.03;4.70;;;6.10;99.90;;;;;;4950242;29;20438;-28
2021/05/07 07:56:06;;;;;;;5.93;4.78;;;6.10;99.90;;;;;;4954253;28;20033;-29
2021/05/07 07:58:32;;;;;;;5.35;4.68;;;6.20;99.90;;;;;;4950243;29;20202;-28
2021/05/07 08:00:57;;;;;;;7.35;4.47;;;6.30;99.90;;;;;;4949767;28;20130;-28
2021/05/07 08:03:23;;;;;;;6.07;4.32;;;6.50;99.90;;;;;;4949382;29;20027;-29
2021/05/07 08:05:48;;;;;;;5.20;3.83;;;6.60;99.90;;;;;;4949661;29;20035;-29
2021/05/07 08:08:14;;;;;;;6.18;4.30;;;6.60;99.90;;;;;;4950342;29;20086;-29
2021/05/07 08:10:39;;;;;;;5.43;4.50;;;6.70;99.90;;;;;;4949916;28;20094;-29
2021/05/07 08:13:05;;;;;;;4.55;4.07;;;6.80;99.90;;;;;;4950098;28;20520;-28
2021/05/07 08:15:31;;;;;;;6.50;4.70;;;6.90;99.90;;;;;;4949986;28;20129;-28
2021/05/07 08:17:56;;;;;;;6.28;4.22;;;7.10;99.90;;;;;;4949924;29;20122;-28
2021/05/07 08:20:23;;;;;;;8.07;4.22;;;7.30;99.90;;;;;;4949997;29;20113;-28
2021/05/07 08:22:49;;;;;;;5.05;4.00;;;7.40;99.70;;;;;;4949715;28;20019;-28
2021/05/07 08:25:15;;;;;;;4.50;3.65;;;7.50;99.90;;;;;;4949352;29;20019;-28
2021/05/07 08:31:02;;;;;;;4.25;3.85;;;7.80;99.60;;;;;;5157403;23;21042;-29
2021/05/07 08:33:28;;;;;;;4.55;4.15;;;8.00;99.20;;;;;;4942505;29;20196;-28
2021/05/07 08:35:53;;;;;;;4.75;4.07;;;8.10;98.70;;;;;;4934725;29;20032;-28
2021/05/07 08:38:19;;;;;;;4.78;3.60;;;8.20;98.60;;;;;;4949321;29;20761;-28
2021/05/07 08:40:44;;;;;;;3.83;3.50;;;8.30;98.60;;;;;;4940666;29;20036;-29
2021/05/07 08:43:14;;;;;;;4.88;4.38;;;8.30;98.60;;;;;;4946899;29;20612;-30
2021/05/07 08:45:41;;;;;;;4.82;3.97;;;8.40;97.70;;;;;;4945318;28;20050;-29
2021/05/07 08:48:08;;;;;;;4.55;3.72;;;8.40;97.10;;;;;;4935558;28;20036;-28
2021/05/07 08:50:34;;;;;;;4.35;2.90;;;8.40;97.50;;;;;;4935592;29;20027;-33
2021/05/07 08:53:08;;;;;;;5.35;3.42;;;8.40;97.90;;;;;;5124465;27;20948;-39
2021/05/07 08:55:34;;;;;;;4.18;3.60;;;8.40;96.10;;;;;;5120545;28;20020;-38
2021/05/07 08:57:59;;;;;;;4.00;3.00;;;8.30;96.10;;;;;;5112605;28;20052;-39
2021/05/07 09:00:25;;;;;;;2.95;2.65;;;8.30;96.20;;;;;;5105564;28;20050;-39
2021/05/07 09:02:50;;;;;;;2.88;2.67;;;8.30;96.40;;;;;;5115521;28;20377;-39
2021/05/07 09:05:30;;;;;;;4.53;3.05;;;8.40;96.60;;;;;;5104802;28;20100;-39
2021/05/07 09:07:55;;;;;;;5.85;3.10;;;8.60;96.30;;;;;;5114888;28;20028;-37
2021/05/07 09:10:30;;;;;;;2.90;2.65;;;8.70;95.80;;;;;;5105371;28;20030;-38
2021/05/07 09:12:56;;;;;;;5.13;3.20;;;8.80;95.90;;;;;;5121337;28;20375;-36
2021/05/07 09:15:22;;;;;;;3.83;3.42;;;9.00;95.60;;;;;;5124133;28;20019;-39
2021/05/07 09:17:47;;;;;;;3.17;2.80;;;9.00;95.40;;;;;;5110662;28;20019;-38
2021/05/07 09:20:15;;;;;;;5.13;3.25;;;9.00;95.70;;;;;;5123814;28;20102;-39
2021/05/07 09:22:42;;;;;;;4.70;3.45;;;9.20;94.00;;;;;;5111289;28;20127;-38
2021/05/07 09:25:07;;;;;;;3.38;2.67;;;9.20;94.00;;;;;;5124517;28;20077;-40
2021/05/07 09:27:33;;;;;;;5.32;2.80;;;9.30;94.10;;;;;;5111768;28;20024;-41
2021/05/07 09:29:59;;;;;;;3.53;2.80;;;9.30;93.70;;;;;;5123602;28;20110;-40
2021/05/07 09:32:34;;;;;;;2.95;2.35;;;9.30;92.70;;;;;;5115321;28;20027;-40
2021/05/07 09:35:08;;;;;;;2.20;2.00;;;9.20;93.00;;;;;;5122316;28;20035;-37
2021/05/07 09:37:34;;;;;;;6.20;2.47;;;9.20;93.10;;;;;;5115535;28;20358;-43
2021/05/07 09:40:11;;;;;;;3.67;2.85;;;9.20;93.10;;;;;;5119985;28;20027;-42
2021/05/07 09:42:40;;;;;;;3.38;2.58;;;9.20;91.50;;;;;;5115229;28;20103;-41
2021/05/07 09:45:20;;;;;;;2.85;2.40;;;9.30;91.60;;;;;;5119485;28;20468;-35
2021/05/07 09:47:47;;;;;;;3.15;2.20;;;9.50;91.40;;;;;;5115126;28;20027;-37
2021/05/07 09:50:40;;;;;;;3.40;2.53;;;9.70;90.10;;;;;;5118851;28;20019;-40
2021/05/07 09:53:13;;;;;;;2.75;2.40;;;9.80;89.90;;;;;;5114031;28;20040;-37
2021/05/07 09:55:40;;;;;;;4.78;2.42;;;10.00;90.70;;;;;;5120906;28;20020;-40
2021/05/07 09:58:05;;;;;;;4.22;2.35;;;10.10;90.40;;;;;;5115441;28;20047;-36
2021/05/07 10:00:32;;;;;;;3.45;2.42;;;10.20;90.00;;;;;;5118666;28;20015;-38
2021/05/07 10:02:58;;;;;;;3.35;2.47;;;10.40;89.80;;;;;;5113198;28;20050;-38
2021/05/07 10:05:27;;;;;;;3.05;2.70;;;10.40;88.50;;;;;;5102599;28;20035;-40
2021/05/07 10:07:53;;;;;;;3.08;2.55;;;10.40;88.10;;;;;;5106641;28;20016;-41
2021/05/07 10:10:19;;;;;;;3.00;2.13;;;10.40;88.90;;;;;;5100398;28;20168;-39
2021/05/07 10:12:46;;;;;;;5.25;3.00;;;10.40;89.10;;;;;;5108149;28;20123;-44
2021/05/07 10:15:12;;;;;;;4.25;2.80;;;10.40;86.10;;;;;;5097653;28;20149;-40
2021/05/07 10:17:51;;;;;;;3.40;2.70;;;10.40;87.20;;;;;;5107478;28;20042;-39
2021/05/07 10:20:35;;;;;;;4.88;2.78;;;10.40;88.60;;;;;;5097847;28;20024;-41
2021/05/07 10:23:14;;;;;;;2.60;2.40;;;10.60;90.00;;;;;;5107555;28;20020;-39
2021/05/07 10:25:40;;;;;;;4.25;2.92;;;10.80;90.20;;;;;;5097767;28;20016;-36
2021/05/07 10:28:15;;;;;;;2.85;2.20;;;10.80;87.70;;;;;;5108228;28;20411;-40
2021/05/07 10:30:41;;;;;;;3.47;2.38;;;10.80;89.60;;;;;;5097834;28;20031;-40
2021/05/07 10:33:18;;;;;;;3.63;2.30;;;10.80;88.60;;;;;;5104237;28;20040;-40
2021/05/07 10:35:53;;;;;;;6.47;2.30;;;10.80;87.30;;;;;;5106780;28;20539;-37
2021/05/07 10:38:19;;;;;;;2.88;2.47;;;10.70;87.30;;;;;;5107484;28;20026;-40
2021/05/07 10:40:46;;;;;;;2.38;2.08;;;10.50;84.80;;;;;;5097277;28;20020;-36
2021/05/07 10:43:13;;;;;;;3.75;2.20;;;10.50;86.40;;;;;;5108654;28;20062;-39
2021/05/07 10:45:51;;;;;;;2.42;2.20;;;10.40;84.70;;;;;;5095068;28;20011;-38
2021/05/07 10:48:26;;;;;;;2.90;2.05;;;10.50;84.30;;;;;;5108927;28;20445;-39
2021/05/07 10:51:02;;;;;;;3.05;2.28;;;10.50;85.80;;;;;;5095060;28;20164;-40
2021/05/07 10:53:35;;;;;;;2.20;1.90;;;10.70;85.40;;;;;;5108564;28;20108;-39
2021/05/07 10:56:12;;;;;;;;;;;10.90;84.70;;;;;;5101789;28;20047;-40
2021/05/07 10:58:37;;;;;;;3.17;2.40;;;11.00;84.20;;;;;;5087596;28;19915;-39
2021/05/07 11:01:27;;;;;;;2.63;2.10;;;11.00;84.80;;;;;;5100241;28;20020;-39
2021/05/07 11:04:02;;;;;;;3.65;2.25;;;11.10;86.40;;;;;;5088124;28;20016;-39
2021/05/07 11:06:42;;;;;;;2.58;2.30;;;11.10;86.40;;;;;;5102328;28;20031;-39
2021/05/07 11:09:29;;;;;;;3.22;2.08;;;11.00;85.00;;;;;;5087728;28;20039;-39
2021/05/07 11:12:03;;;;;;;2.60;2.20;;;11.00;86.50;;;;;;5098039;28;20123;-37
2021/05/07 11:14:28;;;;;;;3.22;1.85;;;10.90;85.10;;;;;;5087274;28;20032;-36
2021/05/07 11:16:54;;;;;;;3.13;1.90;;;10.80;85.50;;;;;;5104252;28;20531;-38
2021/05/07 11:19:20;;;;;;;2.17;1.85;;;10.70;86.50;;;;;;5106943;28;20059;-37
2021/05/07 11:21:57;;;;;;;2.13;1.70;;;10.70;86.20;;;;;;5099906;28;20028;-38
2021/05/07 11:24:34;;;;;;;2.80;2.08;;;10.80;86.50;;;;;;5087212;28;20023;-38
2021/05/07 11:27:02;;;;;;;2.47;1.83;;;10.90;85.50;;;;;;5098571;28;20043;-39
2021/05/07 11:29:30;;;;;;;4.05;2.30;;;11.10;85.60;;;;;;5087245;28;20024;-38
2021/05/07 11:32:11;;;;;;;3.28;2.17;;;11.20;85.10;;;;;;5091902;28;20105;-41
2021/05/07 11:34:37;;;;;;;3.38;1.92;;;11.30;84.30;;;;;;5086398;28;20028;-40
2021/05/07 11:37:03;;;;;;;2.85;1.90;;;11.40;82.90;;;;;;5099001;28;20020;-36
2021/05/07 11:39:28;;;;;;;3.65;2.03;;;11.40;83.00;;;;;;5086956;28;20032;-40
2021/05/07 11:41:54;;;;;;;5.13;2.70;;;11.60;83.20;;;;;;5095892;28;20038;-37
2021/05/07 11:44:20;;;;;;;2.85;2.40;;;11.90;82.80;;;;;;5088874;28;20012;-44
2021/05/07 11:47:05;;;;;;;5.32;2.55;;;12.10;82.90;;;;;;5093912;28;20073;-39
2021/05/07 11:49:32;;;;;;;5.05;2.63;;;12.30;83.90;;;;;;5088305;28;20024;-37
2021/05/07 11:51:58;;;;;;;2.05;1.77;;;12.40;79.90;;;;;;5094575;28;20035;-39
2021/05/07 11:54:23;;;;;;;4.22;1.98;;;12.40;78.20;;;;;;5091626;28;20502;-39
2021/05/07 11:56:57;;;;;;;3.13;1.92;;;12.40;80.10;;;;;;5091292;28;20015;-37
2021/05/07 11:59:22;;;;;;;3.40;2.25;;;12.40;80.10;;;;;;5093219;28;20377;-38
2021/05/07 12:01:49;;;;;;;2.30;1.73;;;12.30;78.60;;;;;;5089923;28;20099;-37
2021/05/07 12:04:15;;;;;;;4.20;2.38;;;12.20;79.80;;;;;;5095032;28;20028;-40
2021/05/07 12:06:44;;;;;;;2.80;1.63;;;12.20;77.10;;;;;;5087693;28;20024;-38
2021/05/07 12:09:13;;;;;;;2.90;2.13;;;12.10;73.90;;;;;;5097125;28;20490;-38
2021/05/07 12:11:39;;;;;;;3.50;2.33;;;12.20;76.60;;;;;;5087406;28;20023;-39
2021/05/07 12:14:10;;;;;;;3.13;2.15;;;12.30;76.20;;;;;;5098233;28;20046;-38
2021/05/07 12:16:35;;;;;;;1.83;1.60;;;12.40;76.80;;;;;;5086523;28;20118;-38
2021/05/07 12:19:04;;;;;;;5.10;2.30;;;12.60;77.30;;;;;;5097778;28;20482;-39
2021/05/07 12:21:45;;;;;;;4.95;2.38;;;12.70;75.20;;;;;;5086291;28;20077;-41
2021/05/07 12:24:13;;;;;;;3.10;2.28;;;12.60;76.20;;;;;;5098084;28;20179;-38
2021/05/07 12:26:49;;;;;;;3.70;2.00;;;12.60;74.50;;;;;;5086494;28;20035;-41
2021/05/07 12:29:16;;;;;;;4.22;1.90;;;12.50;76.00;;;;;;5101453;28;20023;-40
2021/05/07 12:31:42;;;;;;;3.80;2.10;;;12.50;74.90;;;;;;5089238;28;20076;-41
2021/05/07 12:34:19;;;;;;;6.32;2.47;;;12.50;74.90;;;;;;5094456;28;20067;-36
2021/05/07 12:36:59;;;;;;;4.88;2.55;;;12.70;74.50;;;;;;5106953;28;20080;-40
2021/05/07 12:39:26;;;;;;;3.53;2.65;;;12.70;74.10;;;;;;5099359;28;20016;-39
2021/05/07 12:41:56;;;;;;;4.50;2.22;;;12.60;72.30;;;;;;5086569;28;20032;-40
2021/05/07 12:44:23;;;;;;;4.03;2.55;;;12.50;72.50;;;;;;5099105;28;20088;-40
2021/05/07 12:46:49;;;;;;;3.15;2.20;;;12.50;70.00;;;;;;5086528;28;20012;-37
2021/05/07 12:49:14;;;;;;;2.95;1.98;;;12.40;70.20;;;;;;5097651;28;20081;-40
2021/05/07 12:51:40;;;;;;;2.80;1.80;;;12.50;68.60;;;;;;5087196;28;20048;-39
2021/05/07 12:54:06;;;;;;;2.47;1.80;;;12.60;69.50;;;;;;5095100;28;20032;-40
2021/05/07 12:56:31;;;;;;;4.25;2.40;;;12.70;69.80;;;;;;5090128;28;20020;-41
2021/05/07 12:59:00;;;;;;;4.93;2.88;;;12.90;69.60;;;;;;5091601;28;20059;-39